📊 Raw Sensor Data
Showing records 46051 to 46075 of 85,064 total
| ID | Distance (ft) | Battery V | Battery A | Int Temp (°F) | Int Humid (%) | Ext Temp (°F) | Solar V | RSSI | SNR | Time Stamp |
|---|---|---|---|---|---|---|---|---|---|---|
| 39026 | -- | 4.11 | 33 | 66 | 45 | 63 | 4.50 | -75 | 8 | 04/27/2025 05:45 PM |
| 39025 | -- | 4.02 | 0 | 67 | 46 | 63 | 5.10 | -75 | 8 | 04/27/2025 05:30 PM |
| 39024 | -- | 4.02 | 0 | 68 | 45 | 64 | 5.10 | -75 | 8 | 04/27/2025 05:15 PM |
| 39023 | -- | 4.08 | 0 | 70 | 45 | 61 | 5.10 | -75 | 8 | 04/27/2025 05:00 PM |
| 39022 | -- | 4.02 | 0 | 72 | 44 | 61 | 5.10 | -75 | 8 | 04/27/2025 04:45 PM |
| 39021 | -- | 4.02 | 0 | 76 | 41 | 66 | 5.10 | -75 | 8 | 04/27/2025 04:30 PM |
| 39020 | -- | 4.02 | 0 | 73 | 42 | 69 | 5.10 | -76 | 8 | 04/27/2025 04:15 PM |
| 39019 | 15.3 | 4.02 | 0 | 76 | 39 | 66 | 5.10 | -75 | 8 | 04/27/2025 04:00 PM |
| 39018 | -- | 4.02 | 0 | 75 | 38 | 62 | 5.10 | -76 | 9 | 04/27/2025 03:45 PM |
| 39017 | -- | 4.02 | 0 | 68 | 40 | 67 | 5.10 | -77 | 8 | 04/27/2025 03:30 PM |
| 39016 | -- | 4.02 | 0 | 66 | 41 | 62 | 5.10 | -75 | 8 | 04/27/2025 03:15 PM |
| 39015 | 15.2 | 4.02 | 0 | 64 | 41 | 61 | 5.10 | -75 | 8 | 04/27/2025 03:00 PM |
| 39014 | 15.3 | 4.02 | 0 | 63 | 41 | 60 | 5.10 | -75 | 8 | 04/27/2025 02:45 PM |
| 39013 | -- | 4.02 | 0 | 62 | 42 | 61 | 5.10 | -75 | 9 | 04/27/2025 02:30 PM |
| 39012 | -- | 4.02 | 0 | 60 | 43 | 59 | 5.10 | -74 | 9 | 04/27/2025 02:15 PM |
| 39011 | 15.1 | 4.02 | 0 | 61 | 44 | 59 | 5.10 | -76 | 8 | 04/27/2025 02:00 PM |
| 39010 | 15.2 | 4.02 | 0 | 62 | 43 | 58 | 5.10 | -74 | 7 | 04/27/2025 01:45 PM |
| 39009 | 15.2 | 4.02 | 0 | 64 | 43 | 59 | 5.10 | -77 | 7 | 04/27/2025 01:30 PM |
| 39008 | 15.2 | 4.02 | 0 | 63 | 44 | 59 | 5.10 | -74 | 7 | 04/27/2025 01:15 PM |
| 39007 | 15.2 | 4.02 | 0 | 64 | 44 | 59 | 5.10 | -76 | 8 | 04/27/2025 01:00 PM |
| 39006 | 15.3 | 4.02 | 0 | 67 | 42 | 62 | 5.00 | -77 | 8 | 04/27/2025 12:45 PM |
| 39005 | 15.3 | 4.02 | 0 | 69 | 40 | 63 | 5.10 | -75 | 8 | 04/27/2025 12:30 PM |
| 39004 | 15.3 | 4.02 | 0 | 69 | 39 | 67 | 5.10 | -75 | 8 | 04/27/2025 12:15 PM |
| 39003 | 15.3 | 4.11 | 0 | 67 | 39 | 66 | 5.10 | -74 | 7 | 04/27/2025 12:00 PM |
| 39002 | 15.2 | 4.02 | 0 | 65 | 39 | 63 | 5.10 | -76 | 8 | 04/27/2025 11:45 AM |